logo
Search for airport 
image banner adimage banner adimage banner ad
image banner ad

DIBK - Bouake

Located in , Cote D'Ivoire

ICAO - DIBK, IATA - BYK

Data provided by Airmate  

General information

Coordinates: N7°45'9" W5°4'4"
Elevation is 1231 feet MSL.
 
View others Airports in Vallée du Bandama

Operational data

Special qualification required
Current time UTC:
Current local time:
Weather
METAR: DIBK 132000Z 20004KT 8000 FEW016 29/24 Q1010 NOSIG
TAF: TAF DIBK 131700Z 1318/1418 20005KT 9999 SCT012 PROB30 TEMPO 1320/1324 TS BKN013 FEW023CB
View NOTAMs / SUP AIP / TFR affecting this airport [VIEW]
Communications frequencies: [VIEW]

Runways:

RWY identifierQFULength (ft)Width (ft)SurfaceLDA (ft)
0324°10827148ASP
21204°10827148ASP

Airport contact information

Address: Cote D'Ivoire

Satellite view of DIBK